sensor_id;sensor_type;location;lat;lon;timestamp;pressure;altitude;pressure_sealevel;temperature;humidity
40794;BME280;26502;51.886;15.604;2023-07-30T00:03:15;99981.20;;;16.63;78.12
40794;BME280;26502;51.886;15.604;2023-07-30T00:08:19;99988.81;;;16.64;78.10
40794;BME280;26502;51.886;15.604;2023-07-30T00:13:22;99987.83;;;16.63;78.10
40794;BME280;26502;51.886;15.604;2023-07-30T00:18:26;99976.53;;;16.65;78.25
40794;BME280;26502;51.886;15.604;2023-07-30T00:23:29;99971.16;;;16.75;78.17
40794;BME280;26502;51.886;15.604;2023-07-30T00:28:32;99970.76;;;16.66;77.76
40794;BME280;26502;51.886;15.604;2023-07-30T00:33:36;99980.31;;;16.60;77.82
40794;BME280;26502;51.886;15.604;2023-07-30T00:38:39;99987.62;;;16.47;77.72
40794;BME280;26502;51.886;15.604;2023-07-30T00:43:42;99985.55;;;16.38;77.73
40794;BME280;26502;51.886;15.604;2023-07-30T00:48:46;99983.84;;;16.47;77.97
40794;BME280;26502;51.886;15.604;2023-07-30T00:53:49;99985.86;;;16.47;78.05
40794;BME280;26502;51.886;15.604;2023-07-30T00:58:53;99982.83;;;16.50;77.84
40794;BME280;26502;51.886;15.604;2023-07-30T01:03:57;99982.57;;;16.42;77.68
40794;BME280;26502;51.886;15.604;2023-07-30T01:09:01;99989.27;;;16.31;77.64
40794;BME280;26502;51.886;15.604;2023-07-30T01:14:05;99991.87;;;16.21;77.91
40794;BME280;26502;51.886;15.604;2023-07-30T01:19:10;99995.21;;;16.28;77.91
40794;BME280;26502;51.886;15.604;2023-07-30T01:24:13;99994.54;;;16.16;77.70
40794;BME280;26502;51.886;15.604;2023-07-30T01:29:21;99997.10;;;16.05;77.77
40794;BME280;26502;51.886;15.604;2023-07-30T01:34:27;99993.15;;;16.00;78.01
40794;BME280;26502;51.886;15.604;2023-07-30T01:39:31;99991.77;;;16.07;78.24
40794;BME280;26502;51.886;15.604;2023-07-30T01:44:35;99993.77;;;16.09;78.06
40794;BME280;26502;51.886;15.604;2023-07-30T01:49:38;99990.16;;;16.04;78.22
40794;BME280;26502;51.886;15.604;2023-07-30T01:54:42;99992.98;;;16.13;78.20
40794;BME280;26502;51.886;15.604;2023-07-30T01:59:45;99991.48;;;16.22;78.27
40794;BME280;26502;51.886;15.604;2023-07-30T02:04:49;99991.29;;;16.30;78.00
40794;BME280;26502;51.886;15.604;2023-07-30T02:09:52;99997.98;;;16.19;77.76
40794;BME280;26502;51.886;15.604;2023-07-30T02:14:56;100001.05;;;16.12;77.76
40794;BME280;26502;51.886;15.604;2023-07-30T02:19:59;100008.12;;;16.01;77.70
40794;BME280;26502;51.886;15.604;2023-07-30T02:25:02;100008.78;;;16.04;77.85
40794;BME280;26502;51.886;15.604;2023-07-30T02:30:07;100010.95;;;16.01;77.48
40794;BME280;26502;51.886;15.604;2023-07-30T02:35:11;100014.98;;;15.97;77.67
40794;BME280;26502;51.886;15.604;2023-07-30T02:40:15;100023.62;;;15.91;77.58
40794;BME280;26502;51.886;15.604;2023-07-30T02:45:18;100020.59;;;15.79;77.48
40794;BME280;26502;51.886;15.604;2023-07-30T02:50:21;100025.59;;;15.73;77.74
40794;BME280;26502;51.886;15.604;2023-07-30T02:55:25;100036.36;;;15.53;77.26
40794;BME280;26502;51.886;15.604;2023-07-30T03:00:28;100038.77;;;15.35;77.68
40794;BME280;26502;51.886;15.604;2023-07-30T03:05:32;100045.04;;;15.40;77.86
40794;BME280;26502;51.886;15.604;2023-07-30T03:10:36;100048.75;;;15.35;77.78
40794;BME280;26502;51.886;15.604;2023-07-30T03:15:40;100048.58;;;15.27;77.76
40794;BME280;26502;51.886;15.604;2023-07-30T03:20:43;100054.35;;;15.25;78.02
40794;BME280;26502;51.886;15.604;2023-07-30T03:25:47;100046.48;;;15.23;77.97
40794;BME280;26502;51.886;15.604;2023-07-30T03:30:50;100050.90;;;15.18;78.33
40794;BME280;26502;51.886;15.604;2023-07-30T03:35:54;100046.34;;;15.19;78.36
40794;BME280;26502;51.886;15.604;2023-07-30T03:40:58;100048.45;;;15.25;78.40
40794;BME280;26502;51.886;15.604;2023-07-30T03:46:01;100053.38;;;15.27;78.19
40794;BME280;26502;51.886;15.604;2023-07-30T03:51:05;100060.23;;;15.20;77.99
40794;BME280;26502;51.886;15.604;2023-07-30T03:56:10;100062.52;;;15.09;78.23
40794;BME280;26502;51.886;15.604;2023-07-30T04:01:13;100059.09;;;15.01;78.48
40794;BME280;26502;51.886;15.604;2023-07-30T04:06:17;100067.05;;;15.05;78.79
40794;BME280;26502;51.886;15.604;2023-07-30T04:11:20;100068.71;;;15.14;78.87
40794;BME280;26502;51.886;15.604;2023-07-30T04:16:23;100071.81;;;15.21;78.97
40794;BME280;26502;51.886;15.604;2023-07-30T04:21:27;100077.42;;;15.32;79.01
40794;BME280;26502;51.886;15.604;2023-07-30T04:26:30;100076.38;;;15.37;79.03
40794;BME280;26502;51.886;15.604;2023-07-30T04:31:33;100082.14;;;15.45;79.40
40794;BME280;26502;51.886;15.604;2023-07-30T04:36:37;100091.65;;;15.53;79.36
40794;BME280;26502;51.886;15.604;2023-07-30T04:41:42;100097.77;;;15.58;79.48
40794;BME280;26502;51.886;15.604;2023-07-30T04:46:45;100100.10;;;15.67;79.52
40794;BME280;26502;51.886;15.604;2023-07-30T04:51:48;100091.91;;;15.78;79.57
40794;BME280;26502;51.886;15.604;2023-07-30T04:56:53;100088.64;;;15.93;79.58
40794;BME280;26502;51.886;15.604;2023-07-30T05:01:57;100096.02;;;16.01;79.69
40794;BME280;26502;51.886;15.604;2023-07-30T05:07:00;100098.61;;;16.22;79.92
40794;BME280;26502;51.886;15.604;2023-07-30T05:12:04;100091.79;;;16.47;80.08
40794;BME280;26502;51.886;15.604;2023-07-30T05:17:08;100095.56;;;16.76;80.11
40794;BME280;26502;51.886;15.604;2023-07-30T05:22:11;100093.44;;;17.03;80.31
40794;BME280;26502;51.886;15.604;2023-07-30T05:27:14;100098.72;;;17.25;80.03
40794;BME280;26502;51.886;15.604;2023-07-30T05:32:18;100098.73;;;17.27;79.79
40794;BME280;26502;51.886;15.604;2023-07-30T05:37:21;100098.62;;;17.40;79.95
40794;BME280;26502;51.886;15.604;2023-07-30T05:42:25;100102.63;;;17.43;80.11
40794;BME280;26502;51.886;15.604;2023-07-30T05:47:29;100101.55;;;17.59;80.16
40794;BME280;26502;51.886;15.604;2023-07-30T05:52:32;100101.45;;;17.81;80.41
40794;BME280;26502;51.886;15.604;2023-07-30T05:57:36;100099.98;;;17.96;80.10
40794;BME280;26502;51.886;15.604;2023-07-30T06:02:39;100092.36;;;18.07;80.24
40794;BME280;26502;51.886;15.604;2023-07-30T06:07:43;100090.89;;;18.32;80.41
40794;BME280;26502;51.886;15.604;2023-07-30T06:12:46;100088.89;;;18.54;80.16
40794;BME280;26502;51.886;15.604;2023-07-30T06:17:49;100091.88;;;18.77;80.07
40794;BME280;26502;51.886;15.604;2023-07-30T06:22:52;100089.62;;;18.90;79.64
40794;BME280;26502;51.886;15.604;2023-07-30T06:27:56;100089.70;;;18.99;79.37
40794;BME280;26502;51.886;15.604;2023-07-30T06:33:01;100091.95;;;19.21;79.80
40794;BME280;26502;51.886;15.604;2023-07-30T06:38:08;100096.45;;;19.53;79.41
40794;BME280;26502;51.886;15.604;2023-07-30T06:43:12;100095.67;;;19.77;78.95
40794;BME280;26502;51.886;15.604;2023-07-30T06:48:15;100096.16;;;19.93;78.60
40794;BME280;26502;51.886;15.604;2023-07-30T06:53:18;100099.27;;;20.06;77.98
40794;BME280;26502;51.886;15.604;2023-07-30T06:58:22;100097.84;;;20.13;77.88
40794;BME280;26502;51.886;15.604;2023-07-30T07:03:25;100095.73;;;20.45;77.93
40794;BME280;26502;51.886;15.604;2023-07-30T07:08:29;100102.57;;;20.56;77.38
40794;BME280;26502;51.886;15.604;2023-07-30T07:13:32;100110.88;;;20.58;77.21
40794;BME280;26502;51.886;15.604;2023-07-30T07:18:35;100120.63;;;20.78;77.00
40794;BME280;26502;51.886;15.604;2023-07-30T07:23:39;100120.71;;;21.09;76.68
40794;BME280;26502;51.886;15.604;2023-07-30T07:28:42;100119.40;;;21.07;75.56
40794;BME280;26502;51.886;15.604;2023-07-30T07:33:46;100111.58;;;21.31;76.09
40794;BME280;26502;51.886;15.604;2023-07-30T07:38:49;100117.58;;;21.64;75.57
40794;BME280;26502;51.886;15.604;2023-07-30T07:43:53;100114.73;;;21.86;75.08
40794;BME280;26502;51.886;15.604;2023-07-30T07:48:56;100118.70;;;21.72;73.98
40794;BME280;26502;51.886;15.604;2023-07-30T07:54:00;100113.52;;;22.00;74.31
40794;BME280;26502;51.886;15.604;2023-07-30T07:59:03;100109.56;;;22.32;73.27
40794;BME280;26502;51.886;15.604;2023-07-30T08:04:09;100104.59;;;22.43;73.09
40794;BME280;26502;51.886;15.604;2023-07-30T08:09:12;100102.38;;;22.46;72.11
40794;BME280;26502;51.886;15.604;2023-07-30T08:14:15;100102.75;;;22.54;71.39
40794;BME280;26502;51.886;15.604;2023-07-30T08:19:19;100107.27;;;22.50;69.75
40794;BME280;26502;51.886;15.604;2023-07-30T08:24:22;100110.05;;;22.15;67.89
40794;BME280;26502;51.886;15.604;2023-07-30T08:29:26;100108.45;;;21.98;67.21
40794;BME280;26502;51.886;15.604;2023-07-30T08:34:30;100109.79;;;22.01;67.50
40794;BME280;26502;51.886;15.604;2023-07-30T08:39:33;100114.75;;;22.15;68.05
40794;BME280;26502;51.886;15.604;2023-07-30T08:44:36;100116.11;;;22.36;67.76
40794;BME280;26502;51.886;15.604;2023-07-30T08:49:40;100117.39;;;22.42;67.41
40794;BME280;26502;51.886;15.604;2023-07-30T08:54:45;100118.86;;;22.50;67.39
40794;BME280;26502;51.886;15.604;2023-07-30T08:59:52;100114.17;;;22.43;66.64
40794;BME280;26502;51.886;15.604;2023-07-30T09:05:00;100117.48;;;22.41;65.64
40794;BME280;26502;51.886;15.604;2023-07-30T09:10:04;100113.58;;;22.50;66.09
40794;BME280;26502;51.886;15.604;2023-07-30T09:15:09;100108.97;;;22.75;65.66
40794;BME280;26502;51.886;15.604;2023-07-30T09:20:13;100111.11;;;22.81;63.43
40794;BME280;26502;51.886;15.604;2023-07-30T09:25:18;100106.16;;;22.91;63.42
40794;BME280;26502;51.886;15.604;2023-07-30T09:30:24;100099.92;;;23.17;63.36
40794;BME280;26502;51.886;15.604;2023-07-30T09:35:28;100100.08;;;23.58;63.13
40794;BME280;26502;51.886;15.604;2023-07-30T09:40:35;100098.60;;;23.83;62.92
40794;BME280;26502;51.886;15.604;2023-07-30T09:45:39;100096.65;;;24.16;62.59
40794;BME280;26502;51.886;15.604;2023-07-30T09:50:43;100094.05;;;24.36;62.08
40794;BME280;26502;51.886;15.604;2023-07-30T09:55:47;100097.67;;;24.42;60.78
40794;BME280;26502;51.886;15.604;2023-07-30T10:00:51;100096.45;;;24.23;59.43
40794;BME280;26502;51.886;15.604;2023-07-30T10:06:01;100091.21;;;24.50;58.76
40794;BME280;26502;51.886;15.604;2023-07-30T10:11:08;100083.28;;;24.88;59.15
40794;BME280;26502;51.886;15.604;2023-07-30T10:16:12;100081.11;;;25.23;58.77
40794;BME280;26502;51.886;15.604;2023-07-30T10:21:23;100079.83;;;25.21;57.34
40794;BME280;26502;51.886;15.604;2023-07-30T10:26:28;100076.77;;;25.28;57.17
40794;BME280;26502;51.886;15.604;2023-07-30T10:31:39;100073.77;;;25.03;55.95
40794;BME280;26502;51.886;15.604;2023-07-30T10:36:44;100065.56;;;24.82;56.48
40794;BME280;26502;51.886;15.604;2023-07-30T10:41:50;100064.38;;;25.13;56.34
40794;BME280;26502;51.886;15.604;2023-07-30T10:46:55;100056.54;;;25.23;56.12
40794;BME280;26502;51.886;15.604;2023-07-30T10:51:59;100060.65;;;25.12;56.03
40794;BME280;26502;51.886;15.604;2023-07-30T10:57:03;100055.10;;;24.93;55.93
40794;BME280;26502;51.886;15.604;2023-07-30T11:02:07;100051.48;;;24.99;56.09
40794;BME280;26502;51.886;15.604;2023-07-30T11:07:17;100043.70;;;25.37;55.90
40794;BME280;26502;51.886;15.604;2023-07-30T11:12:21;100034.44;;;25.24;55.42
40794;BME280;26502;51.886;15.604;2023-07-30T11:17:25;100030.02;;;24.99;54.93
40794;BME280;26502;51.886;15.604;2023-07-30T11:22:34;100025.49;;;25.63;54.42
40794;BME280;26502;51.886;15.604;2023-07-30T11:27:46;100021.98;;;26.00;53.69
40794;BME280;26502;51.886;15.604;2023-07-30T11:32:49;100019.17;;;26.31;53.55
40794;BME280;26502;51.886;15.604;2023-07-30T11:37:53;100010.44;;;26.49;53.33
40794;BME280;26502;51.886;15.604;2023-07-30T11:42:56;100008.23;;;26.86;52.89
40794;BME280;26502;51.886;15.604;2023-07-30T11:48:07;100003.85;;;27.22;52.56
40794;BME280;26502;51.886;15.604;2023-07-30T11:53:11;99995.05;;;27.30;51.94
40794;BME280;26502;51.886;15.604;2023-07-30T11:58:15;99989.17;;;27.32;51.44
40794;BME280;26502;51.886;15.604;2023-07-30T12:03:18;99994.23;;;26.62;51.00
40794;BME280;26502;51.886;15.604;2023-07-30T12:08:26;99992.86;;;26.08;51.02
40794;BME280;26502;51.886;15.604;2023-07-30T12:13:30;99987.80;;;25.74;51.12
40794;BME280;26502;51.886;15.604;2023-07-30T12:18:33;100006.01;;;25.39;51.71
40794;BME280;26502;51.886;15.604;2023-07-30T12:23:36;100006.13;;;24.79;53.61
40794;BME280;26502;51.886;15.604;2023-07-30T12:28:40;100006.50;;;25.24;54.60
40794;BME280;26502;51.886;15.604;2023-07-30T12:33:43;99998.92;;;25.75;54.58
40794;BME280;26502;51.886;15.604;2023-07-30T12:38:47;99982.14;;;26.26;53.95
40794;BME280;26502;51.886;15.604;2023-07-30T12:43:50;99964.03;;;26.41;53.72
40794;BME280;26502;51.886;15.604;2023-07-30T12:48:53;99981.82;;;25.93;53.31
40794;BME280;26502;51.886;15.604;2023-07-30T12:53:57;99988.08;;;25.32;53.55
40794;BME280;26502;51.886;15.604;2023-07-30T12:59:00;99982.65;;;24.95;53.66
40794;BME280;26502;51.886;15.604;2023-07-30T13:04:04;99998.39;;;24.78;53.93
40794;BME280;26502;51.886;15.604;2023-07-30T13:09:08;99997.70;;;24.65;54.77
40794;BME280;26502;51.886;15.604;2023-07-30T13:14:12;99995.27;;;24.44;54.65
40794;BME280;26502;51.886;15.604;2023-07-30T13:19:15;99997.09;;;24.35;54.54
40794;BME280;26502;51.886;15.604;2023-07-30T13:24:19;99993.73;;;24.95;53.82
40794;BME280;26502;51.886;15.604;2023-07-30T13:29:22;99992.65;;;25.35;53.96
40794;BME280;26502;51.886;15.604;2023-07-30T13:34:26;99996.08;;;26.11;52.73
40794;BME280;26502;51.886;15.604;2023-07-30T13:39:29;100001.94;;;26.25;52.34
40794;BME280;26502;51.886;15.604;2023-07-30T13:44:33;100001.13;;;26.77;51.62
40794;BME280;26502;51.886;15.604;2023-07-30T13:49:36;99999.25;;;27.26;50.90
40794;BME280;26502;51.886;15.604;2023-07-30T13:54:40;99998.33;;;27.84;50.39
40794;BME280;26502;51.886;15.604;2023-07-30T13:59:44;99994.71;;;27.78;49.55
40794;BME280;26502;51.886;15.604;2023-07-30T14:04:48;99993.64;;;27.38;48.98
40794;BME280;26502;51.886;15.604;2023-07-30T14:09:52;99988.95;;;27.44;49.92
40794;BME280;26502;51.886;15.604;2023-07-30T14:14:55;99976.17;;;27.56;49.49
40794;BME280;26502;51.886;15.604;2023-07-30T14:19:58;99971.48;;;27.50;48.80
40794;BME280;26502;51.886;15.604;2023-07-30T14:25:02;99970.20;;;27.84;48.71
40794;BME280;26502;51.886;15.604;2023-07-30T14:30:08;99968.66;;;27.76;47.22
40794;BME280;26502;51.886;15.604;2023-07-30T14:35:11;99965.38;;;27.48;47.82
40794;BME280;26502;51.886;15.604;2023-07-30T14:40:15;99961.13;;;27.03;47.43
40794;BME280;26502;51.886;15.604;2023-07-30T14:45:18;99955.85;;;26.69;47.82
40794;BME280;26502;51.886;15.604;2023-07-30T14:50:21;99958.55;;;26.57;47.79
40794;BME280;26502;51.886;15.604;2023-07-30T14:55:25;99957.64;;;26.64;47.18
40794;BME280;26502;51.886;15.604;2023-07-30T15:00:29;99960.88;;;26.56;47.52
40794;BME280;26502;51.886;15.604;2023-07-30T15:05:33;99967.91;;;26.52;47.21
40794;BME280;26502;51.886;15.604;2023-07-30T15:10:36;99972.23;;;26.86;47.58
40794;BME280;26502;51.886;15.604;2023-07-30T15:15:40;99977.15;;;27.32;46.97
40794;BME280;26502;51.886;15.604;2023-07-30T15:20:43;99981.98;;;27.39;45.94
40794;BME280;26502;51.886;15.604;2023-07-30T15:25:47;99989.44;;;27.20;45.07
40794;BME280;26502;51.886;15.604;2023-07-30T15:30:51;99989.36;;;26.98;44.38
40794;BME280;26502;51.886;15.604;2023-07-30T15:35:55;99984.54;;;27.12;44.39
40794;BME280;26502;51.886;15.604;2023-07-30T15:40:58;99987.39;;;27.56;43.57
40794;BME280;26502;51.886;15.604;2023-07-30T15:46:02;99992.48;;;27.03;42.55
40794;BME280;26502;51.886;15.604;2023-07-30T15:51:08;99989.03;;;26.75;42.65
40794;BME280;26502;51.886;15.604;2023-07-30T15:56:12;99988.89;;;26.80;42.78
40794;BME280;26502;51.886;15.604;2023-07-30T16:01:15;99995.25;;;26.78;41.84
40794;BME280;26502;51.886;15.604;2023-07-30T16:06:22;99995.90;;;26.75;41.73
40794;BME280;26502;51.886;15.604;2023-07-30T16:11:27;99998.54;;;26.46;41.47
40794;BME280;26502;51.886;15.604;2023-07-30T16:16:31;99993.30;;;26.23;41.48
40794;BME280;26502;51.886;15.604;2023-07-30T16:21:34;99988.77;;;26.11;41.73
40794;BME280;26502;51.886;15.604;2023-07-30T16:26:38;99995.30;;;25.94;41.70
40794;BME280;26502;51.886;15.604;2023-07-30T16:31:41;99996.98;;;25.73;41.60
40794;BME280;26502;51.886;15.604;2023-07-30T16:36:45;100002.44;;;25.61;41.77
40794;BME280;26502;51.886;15.604;2023-07-30T16:41:48;100004.90;;;25.62;41.97
40794;BME280;26502;51.886;15.604;2023-07-30T16:46:52;100013.89;;;25.51;41.56
40794;BME280;26502;51.886;15.604;2023-07-30T16:51:56;100018.19;;;25.46;41.81
40794;BME280;26502;51.886;15.604;2023-07-30T16:57:00;100015.44;;;25.34;41.82
40794;BME280;26502;51.886;15.604;2023-07-30T17:02:04;100015.93;;;25.37;42.38
40794;BME280;26502;51.886;15.604;2023-07-30T17:07:07;100020.81;;;25.37;42.32
40794;BME280;26502;51.886;15.604;2023-07-30T17:12:11;100024.86;;;25.17;42.41
40794;BME280;26502;51.886;15.604;2023-07-30T17:17:14;100026.86;;;25.07;42.76
40794;BME280;26502;51.886;15.604;2023-07-30T17:22:17;100030.14;;;24.87;42.80
40794;BME280;26502;51.886;15.604;2023-07-30T17:27:21;100035.72;;;24.79;43.01
40794;BME280;26502;51.886;15.604;2023-07-30T17:32:24;100041.86;;;24.72;43.47
40794;BME280;26502;51.886;15.604;2023-07-30T17:37:28;100051.48;;;24.57;43.50
40794;BME280;26502;51.886;15.604;2023-07-30T17:42:31;100058.39;;;24.52;43.90
40794;BME280;26502;51.886;15.604;2023-07-30T17:47:35;100067.70;;;24.39;44.09
40794;BME280;26502;51.886;15.604;2023-07-30T17:52:39;100072.88;;;24.23;44.29
40794;BME280;26502;51.886;15.604;2023-07-30T17:57:44;100083.82;;;24.11;44.40
40794;BME280;26502;51.886;15.604;2023-07-30T18:02:47;100097.88;;;23.98;44.66
40794;BME280;26502;51.886;15.604;2023-07-30T18:07:50;100109.83;;;23.82;45.10
40794;BME280;26502;51.886;15.604;2023-07-30T18:12:54;100119.10;;;23.71;45.42
40794;BME280;26502;51.886;15.604;2023-07-30T18:17:58;100133.19;;;23.47;45.19
40794;BME280;26502;51.886;15.604;2023-07-30T18:23:06;100146.64;;;23.27;45.59
40794;BME280;26502;51.886;15.604;2023-07-30T18:28:10;100158.60;;;23.11;46.08
40794;BME280;26502;51.886;15.604;2023-07-30T18:33:14;100169.91;;;23.01;46.82
40794;BME280;26502;51.886;15.604;2023-07-30T18:38:18;100177.86;;;22.73;47.38
40794;BME280;26502;51.886;15.604;2023-07-30T18:43:21;100184.08;;;22.53;49.07
40794;BME280;26502;51.886;15.604;2023-07-30T18:48:27;100186.60;;;22.41;50.32
40794;BME280;26502;51.886;15.604;2023-07-30T18:53:32;100192.31;;;22.23;51.09
40794;BME280;26502;51.886;15.604;2023-07-30T18:58:37;100188.95;;;22.12;51.82
40794;BME280;26502;51.886;15.604;2023-07-30T19:03:42;100195.31;;;21.83;52.59
40794;BME280;26502;51.886;15.604;2023-07-30T19:08:46;100206.45;;;21.54;53.60
40794;BME280;26502;51.886;15.604;2023-07-30T19:13:50;100211.22;;;21.38;54.36
40794;BME280;26502;51.886;15.604;2023-07-30T19:18:53;100209.91;;;21.30;54.53
40794;BME280;26502;51.886;15.604;2023-07-30T19:23:57;100219.55;;;21.01;54.40
40794;BME280;26502;51.886;15.604;2023-07-30T19:29:01;100223.42;;;20.60;54.65
40794;BME280;26502;51.886;15.604;2023-07-30T19:34:09;100233.98;;;20.42;55.21
40794;BME280;26502;51.886;15.604;2023-07-30T19:39:13;100243.10;;;20.40;55.77
40794;BME280;26502;51.886;15.604;2023-07-30T19:44:18;100241.13;;;20.27;55.97
40794;BME280;26502;51.886;15.604;2023-07-30T19:49:22;100244.30;;;20.12;56.29
40794;BME280;26502;51.886;15.604;2023-07-30T19:54:26;100252.88;;;19.96;57.03
40794;BME280;26502;51.886;15.604;2023-07-30T19:59:29;100260.33;;;19.96;57.26
40794;BME280;26502;51.886;15.604;2023-07-30T20:04:34;100267.65;;;19.92;57.44
40794;BME280;26502;51.886;15.604;2023-07-30T20:09:40;100269.34;;;19.82;57.71
40794;BME280;26502;51.886;15.604;2023-07-30T20:14:44;100276.62;;;19.66;58.07
40794;BME280;26502;51.886;15.604;2023-07-30T20:19:48;100279.93;;;19.59;58.51
40794;BME280;26502;51.886;15.604;2023-07-30T20:24:51;100293.91;;;19.52;59.02
40794;BME280;26502;51.886;15.604;2023-07-30T20:29:56;100291.54;;;19.53;59.00
40794;BME280;26502;51.886;15.604;2023-07-30T20:35:00;100298.00;;;19.48;59.46
40794;BME280;26502;51.886;15.604;2023-07-30T20:40:07;100306.23;;;19.32;60.61
40794;BME280;26502;51.886;15.604;2023-07-30T20:45:12;100304.18;;;19.03;61.39
40794;BME280;26502;51.886;15.604;2023-07-30T20:50:17;100304.83;;;18.85;62.56
40794;BME280;26502;51.886;15.604;2023-07-30T20:55:22;100311.84;;;18.83;62.80
40794;BME280;26502;51.886;15.604;2023-07-30T21:00:25;100313.50;;;18.74;63.36
40794;BME280;26502;51.886;15.604;2023-07-30T21:05:28;100313.74;;;18.71;63.78
40794;BME280;26502;51.886;15.604;2023-07-30T21:10:32;100318.81;;;18.63;63.89
40794;BME280;26502;51.886;15.604;2023-07-30T21:15:35;100319.94;;;18.44;63.93
40794;BME280;26502;51.886;15.604;2023-07-30T21:20:39;100318.36;;;18.49;64.18
40794;BME280;26502;51.886;15.604;2023-07-30T21:25:42;100317.09;;;18.62;64.80
40794;BME280;26502;51.886;15.604;2023-07-30T21:30:46;100312.09;;;18.66;64.63
40794;BME280;26502;51.886;15.604;2023-07-30T21:35:49;100316.29;;;18.65;64.54
40794;BME280;26502;51.886;15.604;2023-07-30T21:40:52;100323.07;;;18.46;64.16
40794;BME280;26502;51.886;15.604;2023-07-30T21:45:56;100323.30;;;18.33;64.13
40794;BME280;26502;51.886;15.604;2023-07-30T21:51:00;100318.78;;;18.22;64.75
40794;BME280;26502;51.886;15.604;2023-07-30T21:56:04;100313.08;;;18.35;65.13
40794;BME280;26502;51.886;15.604;2023-07-30T22:01:07;100309.53;;;18.37;64.90
40794;BME280;26502;51.886;15.604;2023-07-30T22:06:11;100310.86;;;18.25;64.94
40794;BME280;26502;51.886;15.604;2023-07-30T22:11:15;100309.41;;;18.13;64.74
40794;BME280;26502;51.886;15.604;2023-07-30T22:16:18;100312.02;;;18.17;65.30
40794;BME280;26502;51.886;15.604;2023-07-30T22:21:21;100307.89;;;18.22;65.37
40794;BME280;26502;51.886;15.604;2023-07-30T22:26:25;100309.95;;;18.28;65.57
40794;BME280;26502;51.886;15.604;2023-07-30T22:31:28;100303.39;;;18.32;65.60
40794;BME280;26502;51.886;15.604;2023-07-30T22:36:31;100305.48;;;18.30;65.69
40794;BME280;26502;51.886;15.604;2023-07-30T22:41:35;100309.52;;;18.21;65.80
40794;BME280;26502;51.886;15.604;2023-07-30T22:46:38;100309.14;;;18.11;66.02
40794;BME280;26502;51.886;15.604;2023-07-30T22:51:42;100306.67;;;18.08;66.00
40794;BME280;26502;51.886;15.604;2023-07-30T22:56:45;100308.07;;;18.11;66.05
40794;BME280;26502;51.886;15.604;2023-07-30T23:01:48;100311.92;;;18.02;65.92
40794;BME280;26502;51.886;15.604;2023-07-30T23:06:52;100313.85;;;17.81;66.39
40794;BME280;26502;51.886;15.604;2023-07-30T23:11:56;100316.35;;;17.82;66.35
40794;BME280;26502;51.886;15.604;2023-07-30T23:16:59;100316.06;;;17.78;66.44
40794;BME280;26502;51.886;15.604;2023-07-30T23:22:03;100313.31;;;17.68;66.49
40794;BME280;26502;51.886;15.604;2023-07-30T23:27:07;100310.56;;;17.56;66.70
40794;BME280;26502;51.886;15.604;2023-07-30T23:32:10;100316.70;;;17.45;66.70
40794;BME280;26502;51.886;15.604;2023-07-30T23:37:14;100322.91;;;17.30;66.60
40794;BME280;26502;51.886;15.604;2023-07-30T23:42:17;100321.40;;;17.06;66.96
40794;BME280;26502;51.886;15.604;2023-07-30T23:47:20;100317.48;;;16.97;67.22
40794;BME280;26502;51.886;15.604;2023-07-30T23:52:24;100315.34;;;16.83;67.39
40794;BME280;26502;51.886;15.604;2023-07-30T23:57:27;100321.73;;;16.75;67.62
